sensor_id;sensor_type;location;lat;lon;timestamp;P1;durP1;ratioP1;P2;durP2;ratioP2
58669;SDS011;44439;47.924;10.198;2023-03-16T00:02:25;6.07;;;2.92;;
58669;SDS011;44439;47.924;10.198;2023-03-16T00:05:12;4.35;;;2.90;;
58669;SDS011;44439;47.924;10.198;2023-03-16T00:07:58;6.57;;;3.35;;
58669;SDS011;44439;47.924;10.198;2023-03-16T00:10:44;4.15;;;2.63;;
58669;SDS011;44439;47.924;10.198;2023-03-16T00:13:32;6.45;;;2.65;;
58669;SDS011;44439;47.924;10.198;2023-03-16T00:16:18;4.63;;;2.50;;
58669;SDS011;44439;47.924;10.198;2023-03-16T00:19:04;5.47;;;3.15;;
58669;SDS011;44439;47.924;10.198;2023-03-16T00:21:50;5.57;;;2.92;;
58669;SDS011;44439;47.924;10.198;2023-03-16T00:24:36;5.13;;;2.50;;
58669;SDS011;44439;47.924;10.198;2023-03-16T00:27:22;3.40;;;2.53;;
58669;SDS011;44439;47.924;10.198;2023-03-16T00:30:10;5.20;;;2.65;;
58669;SDS011;44439;47.924;10.198;2023-03-16T00:32:56;4.13;;;2.38;;
58669;SDS011;44439;47.924;10.198;2023-03-16T00:35:44;6.72;;;3.75;;
58669;SDS011;44439;47.924;10.198;2023-03-16T00:38:35;5.85;;;2.72;;
58669;SDS011;44439;47.924;10.198;2023-03-16T00:41:22;4.57;;;2.50;;
58669;SDS011;44439;47.924;10.198;2023-03-16T00:44:08;5.85;;;2.67;;
58669;SDS011;44439;47.924;10.198;2023-03-16T00:46:54;6.22;;;3.00;;
58669;SDS011;44439;47.924;10.198;2023-03-16T00:49:40;5.40;;;3.00;;
58669;SDS011;44439;47.924;10.198;2023-03-16T00:52:27;3.55;;;2.72;;
58669;SDS011;44439;47.924;10.198;2023-03-16T00:55:13;4.65;;;2.60;;
58669;SDS011;44439;47.924;10.198;2023-03-16T00:57:59;4.95;;;2.90;;
58669;SDS011;44439;47.924;10.198;2023-03-16T01:00:49;7.68;;;2.97;;
58669;SDS011;44439;47.924;10.198;2023-03-16T01:03:36;3.25;;;2.63;;
58669;SDS011;44439;47.924;10.198;2023-03-16T01:06:22;4.55;;;2.67;;
58669;SDS011;44439;47.924;10.198;2023-03-16T01:09:07;5.65;;;2.80;;
58669;SDS011;44439;47.924;10.198;2023-03-16T01:11:54;3.95;;;2.50;;
58669;SDS011;44439;47.924;10.198;2023-03-16T01:14:44;6.35;;;2.90;;
58669;SDS011;44439;47.924;10.198;2023-03-16T01:17:30;5.38;;;2.92;;
58669;SDS011;44439;47.924;10.198;2023-03-16T01:20:19;5.20;;;2.92;;
58669;SDS011;44439;47.924;10.198;2023-03-16T01:23:05;6.50;;;3.20;;
58669;SDS011;44439;47.924;10.198;2023-03-16T01:25:50;4.72;;;2.60;;
58669;SDS011;44439;47.924;10.198;2023-03-16T01:28:38;4.80;;;2.90;;
58669;SDS011;44439;47.924;10.198;2023-03-16T01:31:24;4.38;;;2.88;;
58669;SDS011;44439;47.924;10.198;2023-03-16T01:34:10;6.35;;;2.70;;
58669;SDS011;44439;47.924;10.198;2023-03-16T01:37:04;6.13;;;3.22;;
58669;SDS011;44439;47.924;10.198;2023-03-16T01:39:51;5.23;;;3.27;;
58669;SDS011;44439;47.924;10.198;2023-03-16T01:46:45;4.63;;;2.80;;
58669;SDS011;44439;47.924;10.198;2023-03-16T01:53:28;4.20;;;2.70;;
58669;SDS011;44439;47.924;10.198;2023-03-16T01:56:24;5.32;;;2.80;;
58669;SDS011;44439;47.924;10.198;2023-03-16T02:03:41;4.40;;;2.78;;
58669;SDS011;44439;47.924;10.198;2023-03-16T02:07:07;6.28;;;3.22;;
58669;SDS011;44439;47.924;10.198;2023-03-16T02:10:09;4.38;;;3.33;;
58669;SDS011;44439;47.924;10.198;2023-03-16T02:13:53;4.63;;;3.00;;
58669;SDS011;44439;47.924;10.198;2023-03-16T02:31:57;5.53;;;3.10;;
58669;SDS011;44439;47.924;10.198;2023-03-16T02:38:34;6.25;;;3.53;;
58669;SDS011;44439;47.924;10.198;2023-03-16T02:41:22;5.95;;;3.95;;
58669;SDS011;44439;47.924;10.198;2023-03-16T02:44:11;5.35;;;3.67;;
58669;SDS011;44439;47.924;10.198;2023-03-16T02:47:02;4.95;;;3.40;;
58669;SDS011;44439;47.924;10.198;2023-03-16T02:49:55;5.65;;;3.50;;
58669;SDS011;44439;47.924;10.198;2023-03-16T02:52:51;5.55;;;3.10;;
58669;SDS011;44439;47.924;10.198;2023-03-16T02:55:38;6.45;;;3.38;;
58669;SDS011;44439;47.924;10.198;2023-03-16T02:58:34;6.07;;;3.10;;
58669;SDS011;44439;47.924;10.198;2023-03-16T03:01:21;7.38;;;2.90;;
58669;SDS011;44439;47.924;10.198;2023-03-16T03:04:08;6.85;;;3.28;;
58669;SDS011;44439;47.924;10.198;2023-03-16T03:06:54;3.85;;;3.35;;
58669;SDS011;44439;47.924;10.198;2023-03-16T03:09:49;6.70;;;3.28;;
58669;SDS011;44439;47.924;10.198;2023-03-16T03:12:37;3.88;;;2.88;;
58669;SDS011;44439;47.924;10.198;2023-03-16T03:15:23;8.93;;;3.63;;
58669;SDS011;44439;47.924;10.198;2023-03-16T03:18:09;6.32;;;3.15;;
58669;SDS011;44439;47.924;10.198;2023-03-16T03:20:55;6.15;;;3.55;;
58669;SDS011;44439;47.924;10.198;2023-03-16T03:23:42;4.68;;;3.08;;
58669;SDS011;44439;47.924;10.198;2023-03-16T03:26:30;5.68;;;3.40;;
58669;SDS011;44439;47.924;10.198;2023-03-16T03:29:16;4.65;;;3.30;;
58669;SDS011;44439;47.924;10.198;2023-03-16T03:32:03;6.15;;;2.97;;
58669;SDS011;44439;47.924;10.198;2023-03-16T03:34:49;5.57;;;3.60;;
58669;SDS011;44439;47.924;10.198;2023-03-16T03:37:34;6.18;;;3.60;;
58669;SDS011;44439;47.924;10.198;2023-03-16T03:40:20;4.82;;;3.42;;
58669;SDS011;44439;47.924;10.198;2023-03-16T03:43:06;7.30;;;3.88;;
58669;SDS011;44439;47.924;10.198;2023-03-16T03:45:56;5.88;;;3.50;;
58669;SDS011;44439;47.924;10.198;2023-03-16T03:48:42;6.57;;;3.30;;
58669;SDS011;44439;47.924;10.198;2023-03-16T03:51:28;4.43;;;3.20;;
58669;SDS011;44439;47.924;10.198;2023-03-16T03:54:14;5.18;;;3.35;;
58669;SDS011;44439;47.924;10.198;2023-03-16T03:57:00;5.22;;;3.10;;
58669;SDS011;44439;47.924;10.198;2023-03-16T03:59:45;4.60;;;3.05;;
58669;SDS011;44439;47.924;10.198;2023-03-16T04:02:31;5.43;;;3.08;;
58669;SDS011;44439;47.924;10.198;2023-03-16T04:05:18;5.30;;;3.67;;
58669;SDS011;44439;47.924;10.198;2023-03-16T04:11:30;6.60;;;3.42;;
58669;SDS011;44439;47.924;10.198;2023-03-16T04:14:21;5.65;;;3.50;;
58669;SDS011;44439;47.924;10.198;2023-03-16T04:17:08;6.40;;;3.85;;
58669;SDS011;44439;47.924;10.198;2023-03-16T04:20:04;6.18;;;3.25;;
58669;SDS011;44439;47.924;10.198;2023-03-16T04:22:56;5.97;;;3.08;;
58669;SDS011;44439;47.924;10.198;2023-03-16T04:25:43;4.03;;;3.15;;
58669;SDS011;44439;47.924;10.198;2023-03-16T04:28:30;6.28;;;3.72;;
58669;SDS011;44439;47.924;10.198;2023-03-16T04:31:16;6.43;;;3.67;;
58669;SDS011;44439;47.924;10.198;2023-03-16T04:34:02;5.60;;;3.50;;
58669;SDS011;44439;47.924;10.198;2023-03-16T04:36:48;6.22;;;3.20;;
58669;SDS011;44439;47.924;10.198;2023-03-16T04:39:34;5.03;;;3.75;;
58669;SDS011;44439;47.924;10.198;2023-03-16T04:42:19;6.28;;;3.45;;
58669;SDS011;44439;47.924;10.198;2023-03-16T04:45:10;4.30;;;3.13;;
58669;SDS011;44439;47.924;10.198;2023-03-16T04:47:56;4.05;;;3.33;;
58669;SDS011;44439;47.924;10.198;2023-03-16T04:50:42;6.05;;;3.65;;
58669;SDS011;44439;47.924;10.198;2023-03-16T04:53:34;6.10;;;4.40;;
58669;SDS011;44439;47.924;10.198;2023-03-16T04:56:21;8.20;;;3.92;;
58669;SDS011;44439;47.924;10.198;2023-03-16T04:59:13;6.03;;;3.88;;
58669;SDS011;44439;47.924;10.198;2023-03-16T05:01:58;4.18;;;3.35;;
58669;SDS011;44439;47.924;10.198;2023-03-16T05:04:45;7.78;;;3.55;;
58669;SDS011;44439;47.924;10.198;2023-03-16T05:07:31;5.00;;;3.42;;
58669;SDS011;44439;47.924;10.198;2023-03-16T05:10:17;4.05;;;3.33;;
58669;SDS011;44439;47.924;10.198;2023-03-16T05:15:54;6.22;;;3.63;;
58669;SDS011;44439;47.924;10.198;2023-03-16T05:18:40;4.72;;;2.85;;
58669;SDS011;44439;47.924;10.198;2023-03-16T05:21:26;3.75;;;2.80;;
58669;SDS011;44439;47.924;10.198;2023-03-16T05:24:24;5.45;;;2.95;;
58669;SDS011;44439;47.924;10.198;2023-03-16T05:30:42;5.18;;;3.50;;
58669;SDS011;44439;47.924;10.198;2023-03-16T05:33:32;6.88;;;3.50;;
58669;SDS011;44439;47.924;10.198;2023-03-16T05:39:59;3.60;;;2.10;;
58669;SDS011;44439;47.924;10.198;2023-03-16T05:42:47;4.32;;;2.20;;
58669;SDS011;44439;47.924;10.198;2023-03-16T05:48:50;7.55;;;2.65;;
58669;SDS011;44439;47.924;10.198;2023-03-16T05:51:42;4.78;;;2.03;;
58669;SDS011;44439;47.924;10.198;2023-03-16T06:02:18;2.60;;;2.10;;
58669;SDS011;44439;47.924;10.198;2023-03-16T06:38:02;3.95;;;1.65;;
58669;SDS011;44439;47.924;10.198;2023-03-16T06:40:51;2.75;;;1.38;;
58669;SDS011;44439;47.924;10.198;2023-03-16T06:43:38;1.95;;;1.30;;
58669;SDS011;44439;47.924;10.198;2023-03-16T06:46:24;2.63;;;1.50;;
58669;SDS011;44439;47.924;10.198;2023-03-16T06:49:09;1.77;;;1.35;;
58669;SDS011;44439;47.924;10.198;2023-03-16T06:51:55;1.63;;;1.42;;
58669;SDS011;44439;47.924;10.198;2023-03-16T06:54:42;3.15;;;1.70;;
58669;SDS011;44439;47.924;10.198;2023-03-16T06:57:28;4.68;;;2.45;;
58669;SDS011;44439;47.924;10.198;2023-03-16T07:00:14;4.30;;;1.67;;
58669;SDS011;44439;47.924;10.198;2023-03-16T07:03:00;3.40;;;1.42;;
58669;SDS011;44439;47.924;10.198;2023-03-16T07:05:46;1.90;;;0.93;;
58669;SDS011;44439;47.924;10.198;2023-03-16T07:08:32;2.90;;;1.63;;
58669;SDS011;44439;47.924;10.198;2023-03-16T07:11:18;4.18;;;1.65;;
58669;SDS011;44439;47.924;10.198;2023-03-16T07:14:04;2.55;;;1.40;;
58669;SDS011;44439;47.924;10.198;2023-03-16T07:16:49;2.70;;;1.50;;
58669;SDS011;44439;47.924;10.198;2023-03-16T07:19:37;2.30;;;1.40;;
58669;SDS011;44439;47.924;10.198;2023-03-16T07:22:22;1.95;;;1.30;;
58669;SDS011;44439;47.924;10.198;2023-03-16T07:25:08;2.20;;;0.90;;
58669;SDS011;44439;47.924;10.198;2023-03-16T07:27:55;3.25;;;1.63;;
58669;SDS011;44439;47.924;10.198;2023-03-16T07:30:41;2.00;;;1.48;;
58669;SDS011;44439;47.924;10.198;2023-03-16T07:33:27;3.13;;;1.30;;
58669;SDS011;44439;47.924;10.198;2023-03-16T07:36:12;2.22;;;1.50;;
58669;SDS011;44439;47.924;10.198;2023-03-16T07:38:58;3.70;;;1.52;;
58669;SDS011;44439;47.924;10.198;2023-03-16T07:41:44;2.97;;;1.52;;
58669;SDS011;44439;47.924;10.198;2023-03-16T07:44:30;2.97;;;1.55;;
58669;SDS011;44439;47.924;10.198;2023-03-16T07:47:16;8.27;;;2.00;;
58669;SDS011;44439;47.924;10.198;2023-03-16T07:50:02;2.53;;;1.20;;
58669;SDS011;44439;47.924;10.198;2023-03-16T07:52:47;3.00;;;1.50;;
58669;SDS011;44439;47.924;10.198;2023-03-16T07:55:33;1.90;;;1.33;;
58669;SDS011;44439;47.924;10.198;2023-03-16T07:58:20;2.08;;;1.20;;
58669;SDS011;44439;47.924;10.198;2023-03-16T08:01:06;3.05;;;1.50;;
58669;SDS011;44439;47.924;10.198;2023-03-16T08:03:53;1.50;;;1.23;;
58669;SDS011;44439;47.924;10.198;2023-03-16T08:06:39;1.67;;;1.17;;
58669;SDS011;44439;47.924;10.198;2023-03-16T08:09:26;6.35;;;1.40;;
58669;SDS011;44439;47.924;10.198;2023-03-16T08:12:12;1.35;;;0.90;;
58669;SDS011;44439;47.924;10.198;2023-03-16T08:14:57;2.33;;;1.60;;
58669;SDS011;44439;47.924;10.198;2023-03-16T08:17:43;3.15;;;1.45;;
58669;SDS011;44439;47.924;10.198;2023-03-16T08:20:29;2.00;;;1.23;;
58669;SDS011;44439;47.924;10.198;2023-03-16T08:23:15;2.13;;;1.40;;
58669;SDS011;44439;47.924;10.198;2023-03-16T08:26:01;1.98;;;1.23;;
58669;SDS011;44439;47.924;10.198;2023-03-16T08:28:49;2.60;;;1.20;;
58669;SDS011;44439;47.924;10.198;2023-03-16T08:31:38;2.42;;;1.45;;
58669;SDS011;44439;47.924;10.198;2023-03-16T08:34:24;1.85;;;1.30;;
58669;SDS011;44439;47.924;10.198;2023-03-16T08:37:11;2.45;;;1.35;;
58669;SDS011;44439;47.924;10.198;2023-03-16T08:39:56;3.20;;;1.30;;
58669;SDS011;44439;47.924;10.198;2023-03-16T08:42:44;3.45;;;1.30;;
58669;SDS011;44439;47.924;10.198;2023-03-16T08:45:30;1.17;;;0.90;;
58669;SDS011;44439;47.924;10.198;2023-03-16T08:48:18;7.07;;;1.50;;
58669;SDS011;44439;47.924;10.198;2023-03-16T08:51:04;6.03;;;2.72;;
58669;SDS011;44439;47.924;10.198;2023-03-16T08:53:50;2.17;;;1.10;;
58669;SDS011;44439;47.924;10.198;2023-03-16T08:56:36;5.80;;;4.47;;
58669;SDS011;44439;47.924;10.198;2023-03-16T08:59:21;7.78;;;1.50;;
58669;SDS011;44439;47.924;10.198;2023-03-16T09:02:10;4.47;;;1.23;;
58669;SDS011;44439;47.924;10.198;2023-03-16T09:04:58;5.05;;;1.38;;
58669;SDS011;44439;47.924;10.198;2023-03-16T09:07:43;6.55;;;2.72;;
58669;SDS011;44439;47.924;10.198;2023-03-16T09:10:30;2.47;;;1.30;;
58669;SDS011;44439;47.924;10.198;2023-03-16T09:13:16;1.88;;;1.40;;
58669;SDS011;44439;47.924;10.198;2023-03-16T09:16:04;3.00;;;1.73;;
58669;SDS011;44439;47.924;10.198;2023-03-16T09:18:51;3.38;;;1.40;;
58669;SDS011;44439;47.924;10.198;2023-03-16T09:21:37;2.40;;;1.63;;
58669;SDS011;44439;47.924;10.198;2023-03-16T09:24:23;5.47;;;1.33;;
58669;SDS011;44439;47.924;10.198;2023-03-16T09:27:10;3.13;;;1.25;;
58669;SDS011;44439;47.924;10.198;2023-03-16T09:29:56;2.42;;;1.25;;
58669;SDS011;44439;47.924;10.198;2023-03-16T09:32:43;1.20;;;1.10;;
58669;SDS011;44439;47.924;10.198;2023-03-16T09:35:32;1.10;;;0.80;;
58669;SDS011;44439;47.924;10.198;2023-03-16T09:38:18;1.17;;;0.60;;
58669;SDS011;44439;47.924;10.198;2023-03-16T09:41:08;1.40;;;0.82;;
58669;SDS011;44439;47.924;10.198;2023-03-16T09:47:45;1.88;;;0.60;;
58669;SDS011;44439;47.924;10.198;2023-03-16T09:50:33;1.60;;;0.60;;
58669;SDS011;44439;47.924;10.198;2023-03-16T09:53:27;1.77;;;0.93;;
58669;SDS011;44439;47.924;10.198;2023-03-16T09:59:12;2.70;;;1.05;;
58669;SDS011;44439;47.924;10.198;2023-03-16T10:05:08;2.30;;;1.00;;
58669;SDS011;44439;47.924;10.198;2023-03-16T10:11:07;1.45;;;0.90;;
58669;SDS011;44439;47.924;10.198;2023-03-16T10:20:04;2.17;;;0.82;;
58669;SDS011;44439;47.924;10.198;2023-03-16T10:22:53;3.47;;;0.90;;
58669;SDS011;44439;47.924;10.198;2023-03-16T10:25:43;2.08;;;1.00;;
58669;SDS011;44439;47.924;10.198;2023-03-16T10:28:32;0.95;;;0.60;;
58669;SDS011;44439;47.924;10.198;2023-03-16T10:31:20;3.25;;;0.77;;
58669;SDS011;44439;47.924;10.198;2023-03-16T10:34:07;3.05;;;0.63;;
58669;SDS011;44439;47.924;10.198;2023-03-16T10:36:54;1.08;;;0.70;;
58669;SDS011;44439;47.924;10.198;2023-03-16T10:39:40;1.02;;;0.50;;
58669;SDS011;44439;47.924;10.198;2023-03-16T10:42:27;0.85;;;0.70;;
58669;SDS011;44439;47.924;10.198;2023-03-16T10:45:23;1.95;;;1.10;;
58669;SDS011;44439;47.924;10.198;2023-03-16T10:48:15;1.85;;;1.00;;
58669;SDS011;44439;47.924;10.198;2023-03-16T10:51:07;1.27;;;0.70;;
58669;SDS011;44439;47.924;10.198;2023-03-16T10:53:59;1.55;;;0.80;;
58669;SDS011;44439;47.924;10.198;2023-03-16T10:56:55;1.48;;;0.80;;
58669;SDS011;44439;47.924;10.198;2023-03-16T10:59:46;0.80;;;0.60;;
58669;SDS011;44439;47.924;10.198;2023-03-16T11:02:33;1.42;;;0.77;;
58669;SDS011;44439;47.924;10.198;2023-03-16T11:05:29;0.70;;;0.50;;
58669;SDS011;44439;47.924;10.198;2023-03-16T11:08:19;2.38;;;0.60;;
58669;SDS011;44439;47.924;10.198;2023-03-16T11:11:07;0.75;;;0.45;;
58669;SDS011;44439;47.924;10.198;2023-03-16T11:13:56;1.63;;;0.77;;
58669;SDS011;44439;47.924;10.198;2023-03-16T11:16:48;2.17;;;0.87;;
58669;SDS011;44439;47.924;10.198;2023-03-16T11:19:53;1.25;;;0.52;;
58669;SDS011;44439;47.924;10.198;2023-03-16T11:22:42;0.90;;;0.70;;
58669;SDS011;44439;47.924;10.198;2023-03-16T11:25:35;1.33;;;0.60;;
58669;SDS011;44439;47.924;10.198;2023-03-16T11:28:33;1.25;;;0.82;;
58669;SDS011;44439;47.924;10.198;2023-03-16T11:34:27;0.55;;;0.50;;
58669;SDS011;44439;47.924;10.198;2023-03-16T11:37:19;1.77;;;0.63;;
58669;SDS011;44439;47.924;10.198;2023-03-16T11:46:19;2.13;;;0.65;;
58669;SDS011;44439;47.924;10.198;2023-03-16T11:58:48;1.08;;;0.63;;
58669;SDS011;44439;47.924;10.198;2023-03-16T12:04:43;0.90;;;0.60;;
58669;SDS011;44439;47.924;10.198;2023-03-16T12:07:34;0.50;;;0.43;;
58669;SDS011;44439;47.924;10.198;2023-03-16T12:17:15;0.60;;;0.50;;
58669;SDS011;44439;47.924;10.198;2023-03-16T12:20:26;0.85;;;0.70;;
58669;SDS011;44439;47.924;10.198;2023-03-16T12:23:13;1.17;;;0.70;;
58669;SDS011;44439;47.924;10.198;2023-03-16T12:26:07;1.13;;;0.80;;
58669;SDS011;44439;47.924;10.198;2023-03-16T12:28:53;1.00;;;0.80;;
58669;SDS011;44439;47.924;10.198;2023-03-16T12:31:44;1.55;;;0.70;;
58669;SDS011;44439;47.924;10.198;2023-03-16T12:34:39;1.02;;;0.75;;
58669;SDS011;44439;47.924;10.198;2023-03-16T12:37:40;0.73;;;0.60;;
58669;SDS011;44439;47.924;10.198;2023-03-16T12:40:34;1.23;;;0.75;;
58669;SDS011;44439;47.924;10.198;2023-03-16T12:49:41;2.95;;;0.80;;
58669;SDS011;44439;47.924;10.198;2023-03-16T12:52:27;1.67;;;0.52;;
58669;SDS011;44439;47.924;10.198;2023-03-16T12:58:18;1.63;;;0.85;;
58669;SDS011;44439;47.924;10.198;2023-03-16T13:01:06;4.35;;;3.00;;
58669;SDS011;44439;47.924;10.198;2023-03-16T13:03:59;2.30;;;0.52;;
58669;SDS011;44439;47.924;10.198;2023-03-16T13:06:51;1.17;;;0.60;;
58669;SDS011;44439;47.924;10.198;2023-03-16T13:13:11;3.03;;;0.80;;
58669;SDS011;44439;47.924;10.198;2023-03-16T13:16:06;2.92;;;0.73;;
58669;SDS011;44439;47.924;10.198;2023-03-16T13:18:54;1.15;;;0.80;;
58669;SDS011;44439;47.924;10.198;2023-03-16T13:21:40;1.65;;;0.63;;
58669;SDS011;44439;47.924;10.198;2023-03-16T13:24:33;2.08;;;0.77;;
58669;SDS011;44439;47.924;10.198;2023-03-16T13:30:16;1.15;;;0.70;;
58669;SDS011;44439;47.924;10.198;2023-03-16T13:33:09;1.70;;;0.90;;
58669;SDS011;44439;47.924;10.198;2023-03-16T13:36:02;2.22;;;0.73;;
58669;SDS011;44439;47.924;10.198;2023-03-16T13:45:15;1.73;;;1.00;;
58669;SDS011;44439;47.924;10.198;2023-03-16T13:48:03;1.95;;;1.00;;
58669;SDS011;44439;47.924;10.198;2023-03-16T13:50:53;1.70;;;1.05;;
58669;SDS011;44439;47.924;10.198;2023-03-16T13:53:42;1.48;;;1.13;;
58669;SDS011;44439;47.924;10.198;2023-03-16T13:56:30;1.80;;;1.40;;
58669;SDS011;44439;47.924;10.198;2023-03-16T13:59:17;2.78;;;1.45;;
58669;SDS011;44439;47.924;10.198;2023-03-16T14:02:08;1.25;;;1.02;;
58669;SDS011;44439;47.924;10.198;2023-03-16T14:05:10;2.25;;;1.20;;
58669;SDS011;44439;47.924;10.198;2023-03-16T14:07:57;1.83;;;1.10;;
58669;SDS011;44439;47.924;10.198;2023-03-16T14:10:45;2.10;;;1.30;;
58669;SDS011;44439;47.924;10.198;2023-03-16T14:13:32;1.42;;;1.08;;
58669;SDS011;44439;47.924;10.198;2023-03-16T14:16:25;3.38;;;1.08;;
58669;SDS011;44439;47.924;10.198;2023-03-16T14:19:17;2.20;;;0.85;;
58669;SDS011;44439;47.924;10.198;2023-03-16T14:22:10;2.33;;;1.20;;
58669;SDS011;44439;47.924;10.198;2023-03-16T14:25:09;2.75;;;1.33;;
58669;SDS011;44439;47.924;10.198;2023-03-16T14:28:05;3.25;;;1.30;;
58669;SDS011;44439;47.924;10.198;2023-03-16T14:30:52;1.33;;;1.10;;
58669;SDS011;44439;47.924;10.198;2023-03-16T14:33:40;1.75;;;1.10;;
58669;SDS011;44439;47.924;10.198;2023-03-16T14:36:33;1.38;;;1.10;;
58669;SDS011;44439;47.924;10.198;2023-03-16T14:39:20;3.40;;;1.00;;
58669;SDS011;44439;47.924;10.198;2023-03-16T14:42:20;1.95;;;1.02;;
58669;SDS011;44439;47.924;10.198;2023-03-16T14:45:13;1.52;;;1.10;;
58669;SDS011;44439;47.924;10.198;2023-03-16T14:48:04;1.50;;;1.08;;
58669;SDS011;44439;47.924;10.198;2023-03-16T14:50:55;2.42;;;1.23;;
58669;SDS011;44439;47.924;10.198;2023-03-16T14:53:42;1.45;;;1.15;;
58669;SDS011;44439;47.924;10.198;2023-03-16T14:56:32;1.70;;;1.20;;
58669;SDS011;44439;47.924;10.198;2023-03-16T14:59:19;1.27;;;1.00;;
58669;SDS011;44439;47.924;10.198;2023-03-16T15:02:05;2.25;;;1.02;;
58669;SDS011;44439;47.924;10.198;2023-03-16T15:05:00;2.40;;;1.25;;
58669;SDS011;44439;47.924;10.198;2023-03-16T15:07:47;1.73;;;0.90;;
58669;SDS011;44439;47.924;10.198;2023-03-16T15:10:37;1.38;;;1.10;;
58669;SDS011;44439;47.924;10.198;2023-03-16T15:13:23;2.60;;;0.95;;
58669;SDS011;44439;47.924;10.198;2023-03-16T15:16:29;2.55;;;1.05;;
58669;SDS011;44439;47.924;10.198;2023-03-16T15:19:15;2.53;;;1.65;;
58669;SDS011;44439;47.924;10.198;2023-03-16T15:22:00;2.30;;;1.10;;
58669;SDS011;44439;47.924;10.198;2023-03-16T15:24:47;1.80;;;1.50;;
58669;SDS011;44439;47.924;10.198;2023-03-16T15:27:33;2.33;;;1.58;;
58669;SDS011;44439;47.924;10.198;2023-03-16T15:30:21;1.67;;;1.15;;
58669;SDS011;44439;47.924;10.198;2023-03-16T15:33:09;1.55;;;1.15;;
58669;SDS011;44439;47.924;10.198;2023-03-16T15:35:56;3.10;;;1.42;;
58669;SDS011;44439;47.924;10.198;2023-03-16T15:38:46;1.70;;;1.40;;
58669;SDS011;44439;47.924;10.198;2023-03-16T15:41:33;4.75;;;2.58;;
58669;SDS011;44439;47.924;10.198;2023-03-16T15:44:19;6.72;;;2.55;;
58669;SDS011;44439;47.924;10.198;2023-03-16T15:47:05;3.05;;;1.77;;
58669;SDS011;44439;47.924;10.198;2023-03-16T15:49:51;5.43;;;3.15;;
58669;SDS011;44439;47.924;10.198;2023-03-16T15:52:37;2.95;;;2.47;;
58669;SDS011;44439;47.924;10.198;2023-03-16T15:55:40;3.65;;;1.48;;
58669;SDS011;44439;47.924;10.198;2023-03-16T15:58:27;4.53;;;2.90;;
58669;SDS011;44439;47.924;10.198;2023-03-16T16:01:19;2.97;;;2.00;;
58669;SDS011;44439;47.924;10.198;2023-03-16T16:04:11;2.25;;;1.70;;
58669;SDS011;44439;47.924;10.198;2023-03-16T16:06:59;2.47;;;2.00;;
58669;SDS011;44439;47.924;10.198;2023-03-16T16:09:47;5.40;;;2.72;;
58669;SDS011;44439;47.924;10.198;2023-03-16T16:12:33;4.13;;;2.80;;
58669;SDS011;44439;47.924;10.198;2023-03-16T16:15:23;5.53;;;3.60;;
58669;SDS011;44439;47.924;10.198;2023-03-16T16:21:16;7.57;;;4.47;;
58669;SDS011;44439;47.924;10.198;2023-03-16T16:24:06;4.80;;;2.65;;
58669;SDS011;44439;47.924;10.198;2023-03-16T16:26:52;6.13;;;3.55;;
58669;SDS011;44439;47.924;10.198;2023-03-16T16:29:38;3.92;;;2.28;;
58669;SDS011;44439;47.924;10.198;2023-03-16T16:32:24;4.30;;;3.58;;
58669;SDS011;44439;47.924;10.198;2023-03-16T16:35:13;5.30;;;2.45;;
58669;SDS011;44439;47.924;10.198;2023-03-16T16:38:00;33.05;;;21.65;;
58669;SDS011;44439;47.924;10.198;2023-03-16T16:40:46;10.90;;;7.75;;
58669;SDS011;44439;47.924;10.198;2023-03-16T16:46:25;3.88;;;3.53;;
58669;SDS011;44439;47.924;10.198;2023-03-16T16:49:13;4.70;;;3.63;;
58669;SDS011;44439;47.924;10.198;2023-03-16T16:52:01;3.70;;;3.08;;
58669;SDS011;44439;47.924;10.198;2023-03-16T16:54:48;4.40;;;3.53;;
58669;SDS011;44439;47.924;10.198;2023-03-16T16:57:33;5.55;;;3.47;;
58669;SDS011;44439;47.924;10.198;2023-03-16T17:00:21;3.47;;;2.58;;
58669;SDS011;44439;47.924;10.198;2023-03-16T17:03:28;4.22;;;2.72;;
58669;SDS011;44439;47.924;10.198;2023-03-16T17:06:15;4.18;;;2.95;;
58669;SDS011;44439;47.924;10.198;2023-03-16T17:09:01;12.98;;;7.97;;
58669;SDS011;44439;47.924;10.198;2023-03-16T17:11:46;46.10;;;29.55;;
58669;SDS011;44439;47.924;10.198;2023-03-16T17:14:32;40.78;;;24.65;;
58669;SDS011;44439;47.924;10.198;2023-03-16T17:17:18;29.48;;;19.15;;
58669;SDS011;44439;47.924;10.198;2023-03-16T17:20:08;38.28;;;23.27;;
58669;SDS011;44439;47.924;10.198;2023-03-16T17:22:59;63.90;;;38.70;;
58669;SDS011;44439;47.924;10.198;2023-03-16T17:25:45;23.75;;;15.02;;
58669;SDS011;44439;47.924;10.198;2023-03-16T17:28:32;11.05;;;7.28;;
58669;SDS011;44439;47.924;10.198;2023-03-16T17:31:20;14.13;;;10.40;;
58669;SDS011;44439;47.924;10.198;2023-03-16T17:34:30;17.13;;;9.93;;
58669;SDS011;44439;47.924;10.198;2023-03-16T17:37:15;9.15;;;6.70;;
58669;SDS011;44439;47.924;10.198;2023-03-16T17:40:05;5.18;;;4.68;;
58669;SDS011;44439;47.924;10.198;2023-03-16T17:42:51;8.23;;;6.85;;
58669;SDS011;44439;47.924;10.198;2023-03-16T17:45:39;18.23;;;13.65;;
58669;SDS011;44439;47.924;10.198;2023-03-16T17:48:25;33.33;;;26.55;;
58669;SDS011;44439;47.924;10.198;2023-03-16T17:51:12;17.48;;;15.57;;
58669;SDS011;44439;47.924;10.198;2023-03-16T17:53:59;10.50;;;8.55;;
58669;SDS011;44439;47.924;10.198;2023-03-16T17:56:45;8.88;;;7.55;;
58669;SDS011;44439;47.924;10.198;2023-03-16T17:59:32;18.27;;;15.40;;
58669;SDS011;44439;47.924;10.198;2023-03-16T18:05:31;35.72;;;27.20;;
58669;SDS011;44439;47.924;10.198;2023-03-16T18:08:22;53.10;;;43.15;;
58669;SDS011;44439;47.924;10.198;2023-03-16T18:11:11;70.38;;;51.47;;
58669;SDS011;44439;47.924;10.198;2023-03-16T18:14:01;66.07;;;48.95;;
58669;SDS011;44439;47.924;10.198;2023-03-16T18:16:48;64.38;;;45.65;;
58669;SDS011;44439;47.924;10.198;2023-03-16T18:19:34;56.58;;;37.00;;
58669;SDS011;44439;47.924;10.198;2023-03-16T18:22:20;79.60;;;52.08;;
58669;SDS011;44439;47.924;10.198;2023-03-16T18:25:17;88.80;;;57.97;;
58669;SDS011;44439;47.924;10.198;2023-03-16T18:28:11;105.55;;;71.05;;
58669;SDS011;44439;47.924;10.198;2023-03-16T18:30:58;87.80;;;63.00;;
58669;SDS011;44439;47.924;10.198;2023-03-16T18:33:44;50.17;;;36.33;;
58669;SDS011;44439;47.924;10.198;2023-03-16T18:36:32;26.27;;;20.27;;
58669;SDS011;44439;47.924;10.198;2023-03-16T18:39:19;18.17;;;13.35;;
58669;SDS011;44439;47.924;10.198;2023-03-16T18:42:08;38.10;;;26.23;;
58669;SDS011;44439;47.924;10.198;2023-03-16T18:45:02;25.15;;;18.50;;
58669;SDS011;44439;47.924;10.198;2023-03-16T18:47:51;10.10;;;7.40;;
58669;SDS011;44439;47.924;10.198;2023-03-16T18:50:38;6.10;;;4.38;;
58669;SDS011;44439;47.924;10.198;2023-03-16T18:53:27;6.10;;;5.18;;
58669;SDS011;44439;47.924;10.198;2023-03-16T18:56:18;5.78;;;4.38;;
58669;SDS011;44439;47.924;10.198;2023-03-16T18:59:08;6.00;;;4.65;;
58669;SDS011;44439;47.924;10.198;2023-03-16T19:01:54;6.45;;;4.30;;
58669;SDS011;44439;47.924;10.198;2023-03-16T19:04:39;7.15;;;4.40;;
58669;SDS011;44439;47.924;10.198;2023-03-16T19:07:32;6.93;;;4.72;;
58669;SDS011;44439;47.924;10.198;2023-03-16T19:10:30;6.43;;;4.40;;
58669;SDS011;44439;47.924;10.198;2023-03-16T19:13:18;6.65;;;4.18;;
58669;SDS011;44439;47.924;10.198;2023-03-16T19:16:08;6.40;;;4.00;;
58669;SDS011;44439;47.924;10.198;2023-03-16T19:19:00;7.22;;;5.03;;
58669;SDS011;44439;47.924;10.198;2023-03-16T19:21:50;7.15;;;4.82;;
58669;SDS011;44439;47.924;10.198;2023-03-16T19:24:51;6.45;;;4.10;;
58669;SDS011;44439;47.924;10.198;2023-03-16T19:27:38;5.68;;;4.00;;
58669;SDS011;44439;47.924;10.198;2023-03-16T19:30:26;5.82;;;3.70;;